sensor_id;sensor_type;location;lat;lon;timestamp;temperature;humidity
1129;DHT22;553;51.038;7.216;2023-11-19T00:01:34;10.10;99.90
1129;DHT22;553;51.038;7.216;2023-11-19T00:04:01;10.10;99.90
1129;DHT22;553;51.038;7.216;2023-11-19T00:06:28;10.10;99.90
1129;DHT22;553;51.038;7.216;2023-11-19T00:08:55;10.20;99.90
1129;DHT22;553;51.038;7.216;2023-11-19T00:11:22;10.30;99.90
1129;DHT22;553;51.038;7.216;2023-11-19T00:13:48;10.30;99.90
1129;DHT22;553;51.038;7.216;2023-11-19T00:16:15;10.30;99.90
1129;DHT22;553;51.038;7.216;2023-11-19T00:18:43;10.30;99.90
1129;DHT22;553;51.038;7.216;2023-11-19T00:21:10;10.40;99.90
1129;DHT22;553;51.038;7.216;2023-11-19T00:23:37;10.40;99.90
1129;DHT22;553;51.038;7.216;2023-11-19T00:26:04;10.40;99.90
1129;DHT22;553;51.038;7.216;2023-11-19T00:28:33;10.50;99.90
1129;DHT22;553;51.038;7.216;2023-11-19T00:31:00;10.50;99.90
1129;DHT22;553;51.038;7.216;2023-11-19T00:33:27;10.60;99.90
1129;DHT22;553;51.038;7.216;2023-11-19T00:35:54;10.60;99.90
1129;DHT22;553;51.038;7.216;2023-11-19T00:38:22;10.60;99.90
1129;DHT22;553;51.038;7.216;2023-11-19T00:40:49;10.50;99.90
1129;DHT22;553;51.038;7.216;2023-11-19T00:43:16;10.60;99.90
1129;DHT22;553;51.038;7.216;2023-11-19T00:45:43;10.70;99.90
1129;DHT22;553;51.038;7.216;2023-11-19T00:48:10;10.70;99.90
1129;DHT22;553;51.038;7.216;2023-11-19T00:50:37;10.70;99.90
1129;DHT22;553;51.038;7.216;2023-11-19T00:53:06;10.70;99.90
1129;DHT22;553;51.038;7.216;2023-11-19T00:55:32;10.70;99.90
1129;DHT22;553;51.038;7.216;2023-11-19T00:57:59;10.80;99.90
1129;DHT22;553;51.038;7.216;2023-11-19T01:00:26;10.80;99.90
1129;DHT22;553;51.038;7.216;2023-11-19T01:02:54;10.80;99.90
1129;DHT22;553;51.038;7.216;2023-11-19T01:05:21;10.80;99.90
1129;DHT22;553;51.038;7.216;2023-11-19T01:07:50;10.80;99.90
1129;DHT22;553;51.038;7.216;2023-11-19T01:10:20;10.80;99.90
1129;DHT22;553;51.038;7.216;2023-11-19T01:12:47;10.90;99.90
1129;DHT22;553;51.038;7.216;2023-11-19T01:15:14;10.90;99.90
1129;DHT22;553;51.038;7.216;2023-11-19T01:17:40;10.90;99.90
1129;DHT22;553;51.038;7.216;2023-11-19T01:20:19;10.90;99.90
1129;DHT22;553;51.038;7.216;2023-11-19T01:22:46;10.90;99.90
1129;DHT22;553;51.038;7.216;2023-11-19T01:25:15;11.00;99.90
1129;DHT22;553;51.038;7.216;2023-11-19T01:27:42;11.00;99.90
1129;DHT22;553;51.038;7.216;2023-11-19T01:30:10;11.00;99.90
1129;DHT22;553;51.038;7.216;2023-11-19T01:32:40;11.10;99.90
1129;DHT22;553;51.038;7.216;2023-11-19T01:35:07;11.10;99.90
1129;DHT22;553;51.038;7.216;2023-11-19T01:37:37;11.20;99.90
1129;DHT22;553;51.038;7.216;2023-11-19T01:40:04;11.30;99.90
1129;DHT22;553;51.038;7.216;2023-11-19T01:42:39;11.40;99.90
1129;DHT22;553;51.038;7.216;2023-11-19T01:45:07;11.40;99.90
1129;DHT22;553;51.038;7.216;2023-11-19T01:47:37;11.50;99.90
1129;DHT22;553;51.038;7.216;2023-11-19T01:50:06;11.40;99.90
1129;DHT22;553;51.038;7.216;2023-11-19T01:52:34;11.50;99.90
1129;DHT22;553;51.038;7.216;2023-11-19T01:55:04;11.60;99.90
1129;DHT22;553;51.038;7.216;2023-11-19T01:57:31;11.60;99.90
1129;DHT22;553;51.038;7.216;2023-11-19T01:59:58;11.60;99.90
1129;DHT22;553;51.038;7.216;2023-11-19T02:02:25;11.60;99.90
1129;DHT22;553;51.038;7.216;2023-11-19T02:04:53;11.60;99.90
1129;DHT22;553;51.038;7.216;2023-11-19T02:07:20;11.70;99.90
1129;DHT22;553;51.038;7.216;2023-11-19T02:09:47;11.80;99.90
1129;DHT22;553;51.038;7.216;2023-11-19T02:12:14;11.80;99.90
1129;DHT22;553;51.038;7.216;2023-11-19T02:14:41;11.70;99.90
1129;DHT22;553;51.038;7.216;2023-11-19T02:17:28;11.80;99.90
1129;DHT22;553;51.038;7.216;2023-11-19T02:19:55;11.80;99.90
1129;DHT22;553;51.038;7.216;2023-11-19T02:22:22;11.80;99.90
1129;DHT22;553;51.038;7.216;2023-11-19T02:24:51;11.80;99.90
1129;DHT22;553;51.038;7.216;2023-11-19T02:30:06;11.90;99.90
1129;DHT22;553;51.038;7.216;2023-11-19T02:32:35;11.90;99.90
1129;DHT22;553;51.038;7.216;2023-11-19T02:35:02;11.90;99.90
1129;DHT22;553;51.038;7.216;2023-11-19T02:37:31;11.90;99.90
1129;DHT22;553;51.038;7.216;2023-11-19T02:39:58;12.00;99.90
1129;DHT22;553;51.038;7.216;2023-11-19T02:42:36;12.00;99.90
1129;DHT22;553;51.038;7.216;2023-11-19T02:45:03;12.00;99.90
1129;DHT22;553;51.038;7.216;2023-11-19T02:47:33;12.10;99.90
1129;DHT22;553;51.038;7.216;2023-11-19T02:50:00;12.10;99.90
1129;DHT22;553;51.038;7.216;2023-11-19T02:52:27;12.10;99.90
1129;DHT22;553;51.038;7.216;2023-11-19T02:54:54;12.10;99.90
1129;DHT22;553;51.038;7.216;2023-11-19T02:57:22;12.10;99.90
1129;DHT22;553;51.038;7.216;2023-11-19T02:59:49;12.10;99.90
1129;DHT22;553;51.038;7.216;2023-11-19T03:02:16;12.00;99.90
1129;DHT22;553;51.038;7.216;2023-11-19T03:04:45;12.10;99.90
1129;DHT22;553;51.038;7.216;2023-11-19T03:07:12;12.20;99.90
1129;DHT22;553;51.038;7.216;2023-11-19T03:09:40;12.20;99.90
1129;DHT22;553;51.038;7.216;2023-11-19T03:12:07;12.20;99.90
1129;DHT22;553;51.038;7.216;2023-11-19T03:14:34;12.20;99.90
1129;DHT22;553;51.038;7.216;2023-11-19T03:17:04;12.20;99.90
1129;DHT22;553;51.038;7.216;2023-11-19T03:19:31;12.30;99.90
1129;DHT22;553;51.038;7.216;2023-11-19T03:22:01;12.40;99.90
1129;DHT22;553;51.038;7.216;2023-11-19T03:24:28;12.40;99.90
1129;DHT22;553;51.038;7.216;2023-11-19T03:26:55;12.40;99.90
1129;DHT22;553;51.038;7.216;2023-11-19T03:29:21;12.40;99.90
1129;DHT22;553;51.038;7.216;2023-11-19T03:31:49;12.50;99.90
1129;DHT22;553;51.038;7.216;2023-11-19T03:34:17;12.50;99.90
1129;DHT22;553;51.038;7.216;2023-11-19T03:36:44;12.50;99.90
1129;DHT22;553;51.038;7.216;2023-11-19T03:39:10;12.60;99.90
1129;DHT22;553;51.038;7.216;2023-11-19T03:41:38;12.60;99.90
1129;DHT22;553;51.038;7.216;2023-11-19T03:44:07;12.60;99.90
1129;DHT22;553;51.038;7.216;2023-11-19T03:46:35;12.60;99.90
1129;DHT22;553;51.038;7.216;2023-11-19T03:49:02;12.60;99.90
1129;DHT22;553;51.038;7.216;2023-11-19T03:51:32;12.60;99.90
1129;DHT22;553;51.038;7.216;2023-11-19T03:53:59;12.60;99.90
1129;DHT22;553;51.038;7.216;2023-11-19T03:56:27;12.60;99.90
1129;DHT22;553;51.038;7.216;2023-11-19T03:58:54;12.60;99.90
1129;DHT22;553;51.038;7.216;2023-11-19T04:01:21;12.60;99.90
1129;DHT22;553;51.038;7.216;2023-11-19T04:03:48;12.70;99.90
1129;DHT22;553;51.038;7.216;2023-11-19T04:06:18;12.60;99.90
1129;DHT22;553;51.038;7.216;2023-11-19T04:08:45;12.60;99.90
1129;DHT22;553;51.038;7.216;2023-11-19T04:11:11;12.60;99.90
1129;DHT22;553;51.038;7.216;2023-11-19T04:13:38;12.60;99.90
1129;DHT22;553;51.038;7.216;2023-11-19T04:16:05;12.60;99.90
1129;DHT22;553;51.038;7.216;2023-11-19T04:18:32;12.60;99.90
1129;DHT22;553;51.038;7.216;2023-11-19T04:20:59;12.60;99.90
1129;DHT22;553;51.038;7.216;2023-11-19T04:23:26;12.50;99.90
1129;DHT22;553;51.038;7.216;2023-11-19T04:25:52;12.60;99.90
1129;DHT22;553;51.038;7.216;2023-11-19T04:28:19;12.50;99.90
1129;DHT22;553;51.038;7.216;2023-11-19T04:30:46;12.50;99.90
1129;DHT22;553;51.038;7.216;2023-11-19T04:33:13;12.60;99.90
1129;DHT22;553;51.038;7.216;2023-11-19T04:35:39;12.60;99.90
1129;DHT22;553;51.038;7.216;2023-11-19T04:38:06;12.50;99.90
1129;DHT22;553;51.038;7.216;2023-11-19T04:40:33;12.50;99.90
1129;DHT22;553;51.038;7.216;2023-11-19T04:43:00;12.50;99.90
1129;DHT22;553;51.038;7.216;2023-11-19T04:45:27;12.50;99.90
1129;DHT22;553;51.038;7.216;2023-11-19T04:47:54;12.60;99.90
1129;DHT22;553;51.038;7.216;2023-11-19T04:50:20;12.50;99.90
1129;DHT22;553;51.038;7.216;2023-11-19T04:52:48;12.60;99.90
1129;DHT22;553;51.038;7.216;2023-11-19T04:55:14;12.60;99.90
1129;DHT22;553;51.038;7.216;2023-11-19T04:57:41;12.50;99.90
1129;DHT22;553;51.038;7.216;2023-11-19T05:00:10;12.50;99.90
1129;DHT22;553;51.038;7.216;2023-11-19T05:02:40;12.50;99.90
1129;DHT22;553;51.038;7.216;2023-11-19T05:05:08;12.50;99.90
1129;DHT22;553;51.038;7.216;2023-11-19T05:07:36;12.60;99.90
1129;DHT22;553;51.038;7.216;2023-11-19T05:10:03;12.60;99.90
1129;DHT22;553;51.038;7.216;2023-11-19T05:12:30;12.50;99.90
1129;DHT22;553;51.038;7.216;2023-11-19T05:14:57;12.60;99.90
1129;DHT22;553;51.038;7.216;2023-11-19T05:17:24;12.60;99.90
1129;DHT22;553;51.038;7.216;2023-11-19T05:19:51;12.60;99.90
1129;DHT22;553;51.038;7.216;2023-11-19T05:22:18;12.60;99.90
1129;DHT22;553;51.038;7.216;2023-11-19T05:24:47;12.60;99.90
1129;DHT22;553;51.038;7.216;2023-11-19T05:27:15;12.60;99.90
1129;DHT22;553;51.038;7.216;2023-11-19T05:29:42;12.60;99.90
1129;DHT22;553;51.038;7.216;2023-11-19T05:32:10;12.50;99.90
1129;DHT22;553;51.038;7.216;2023-11-19T05:34:37;12.50;99.90
1129;DHT22;553;51.038;7.216;2023-11-19T05:37:18;12.50;99.90
1129;DHT22;553;51.038;7.216;2023-11-19T05:39:45;12.50;99.90
1129;DHT22;553;51.038;7.216;2023-11-19T05:42:12;12.50;99.90
1129;DHT22;553;51.038;7.216;2023-11-19T05:44:38;12.40;99.90
1129;DHT22;553;51.038;7.216;2023-11-19T05:47:07;12.40;99.90
1129;DHT22;553;51.038;7.216;2023-11-19T05:49:34;12.40;99.90
1129;DHT22;553;51.038;7.216;2023-11-19T05:52:01;12.40;99.90
1129;DHT22;553;51.038;7.216;2023-11-19T05:54:30;12.40;99.90
1129;DHT22;553;51.038;7.216;2023-11-19T05:56:58;12.30;99.90
1129;DHT22;553;51.038;7.216;2023-11-19T05:59:24;12.30;99.90
1129;DHT22;553;51.038;7.216;2023-11-19T06:01:51;12.30;99.90
1129;DHT22;553;51.038;7.216;2023-11-19T06:04:18;12.30;99.90
1129;DHT22;553;51.038;7.216;2023-11-19T06:06:45;12.30;99.90
1129;DHT22;553;51.038;7.216;2023-11-19T06:09:11;12.30;99.90
1129;DHT22;553;51.038;7.216;2023-11-19T06:11:40;12.20;99.90
1129;DHT22;553;51.038;7.216;2023-11-19T06:14:07;12.20;99.90
1129;DHT22;553;51.038;7.216;2023-11-19T06:16:33;12.30;99.90
1129;DHT22;553;51.038;7.216;2023-11-19T06:19:00;12.30;99.90
1129;DHT22;553;51.038;7.216;2023-11-19T06:21:27;12.30;99.90
1129;DHT22;553;51.038;7.216;2023-11-19T06:23:54;12.30;99.90
1129;DHT22;553;51.038;7.216;2023-11-19T06:26:21;12.30;99.90
1129;DHT22;553;51.038;7.216;2023-11-19T06:28:48;12.30;99.90
1129;DHT22;553;51.038;7.216;2023-11-19T06:31:15;12.30;99.90
1129;DHT22;553;51.038;7.216;2023-11-19T06:33:43;12.20;99.90
1129;DHT22;553;51.038;7.216;2023-11-19T06:36:10;12.30;99.90
1129;DHT22;553;51.038;7.216;2023-11-19T06:38:37;12.30;99.90
1129;DHT22;553;51.038;7.216;2023-11-19T06:41:07;12.30;99.90
1129;DHT22;553;51.038;7.216;2023-11-19T06:43:33;12.30;99.90
1129;DHT22;553;51.038;7.216;2023-11-19T06:46:03;12.20;99.90
1129;DHT22;553;51.038;7.216;2023-11-19T06:48:32;12.20;99.90
1129;DHT22;553;51.038;7.216;2023-11-19T06:51:00;12.20;99.90
1129;DHT22;553;51.038;7.216;2023-11-19T06:53:26;12.20;99.90
1129;DHT22;553;51.038;7.216;2023-11-19T06:55:54;12.20;99.90
1129;DHT22;553;51.038;7.216;2023-11-19T06:58:21;12.10;99.90
1129;DHT22;553;51.038;7.216;2023-11-19T07:00:48;12.20;99.90
1129;DHT22;553;51.038;7.216;2023-11-19T07:03:16;12.20;99.90
1129;DHT22;553;51.038;7.216;2023-11-19T07:05:43;12.10;99.90
1129;DHT22;553;51.038;7.216;2023-11-19T07:08:10;12.20;99.90
1129;DHT22;553;51.038;7.216;2023-11-19T07:10:37;12.20;99.90
1129;DHT22;553;51.038;7.216;2023-11-19T07:13:05;12.20;99.90
1129;DHT22;553;51.038;7.216;2023-11-19T07:15:33;12.20;99.90
1129;DHT22;553;51.038;7.216;2023-11-19T07:17:59;12.20;99.90
1129;DHT22;553;51.038;7.216;2023-11-19T07:20:29;12.10;99.90
1129;DHT22;553;51.038;7.216;2023-11-19T07:22:55;12.10;99.90
1129;DHT22;553;51.038;7.216;2023-11-19T07:25:24;12.10;99.90
1129;DHT22;553;51.038;7.216;2023-11-19T07:27:51;12.10;99.90
1129;DHT22;553;51.038;7.216;2023-11-19T07:30:19;12.10;99.90
1129;DHT22;553;51.038;7.216;2023-11-19T07:32:45;12.10;99.90
1129;DHT22;553;51.038;7.216;2023-11-19T07:35:12;12.00;99.90
1129;DHT22;553;51.038;7.216;2023-11-19T07:37:39;12.10;99.90
1129;DHT22;553;51.038;7.216;2023-11-19T07:40:06;12.10;99.90
1129;DHT22;553;51.038;7.216;2023-11-19T07:42:34;12.00;99.90
1129;DHT22;553;51.038;7.216;2023-11-19T07:45:00;12.00;99.90
1129;DHT22;553;51.038;7.216;2023-11-19T07:47:27;12.10;99.90
1129;DHT22;553;51.038;7.216;2023-11-19T07:49:55;12.00;99.90
1129;DHT22;553;51.038;7.216;2023-11-19T07:52:22;12.00;99.90
1129;DHT22;553;51.038;7.216;2023-11-19T07:54:48;12.00;99.90
1129;DHT22;553;51.038;7.216;2023-11-19T07:57:15;12.00;99.90
1129;DHT22;553;51.038;7.216;2023-11-19T07:59:42;12.00;99.90
1129;DHT22;553;51.038;7.216;2023-11-19T08:02:09;12.00;99.90
1129;DHT22;553;51.038;7.216;2023-11-19T08:04:36;12.00;99.90
1129;DHT22;553;51.038;7.216;2023-11-19T08:07:03;12.00;99.90
1129;DHT22;553;51.038;7.216;2023-11-19T08:09:30;11.90;99.90
1129;DHT22;553;51.038;7.216;2023-11-19T08:11:57;11.90;99.90
1129;DHT22;553;51.038;7.216;2023-11-19T08:14:24;12.00;99.90
1129;DHT22;553;51.038;7.216;2023-11-19T08:16:51;12.00;99.90
1129;DHT22;553;51.038;7.216;2023-11-19T08:19:18;12.10;99.90
1129;DHT22;553;51.038;7.216;2023-11-19T08:21:45;12.10;99.90
1129;DHT22;553;51.038;7.216;2023-11-19T08:24:11;12.10;99.90
1129;DHT22;553;51.038;7.216;2023-11-19T08:26:38;12.20;99.90
1129;DHT22;553;51.038;7.216;2023-11-19T08:29:05;12.20;99.90
1129;DHT22;553;51.038;7.216;2023-11-19T08:31:32;12.30;99.90
1129;DHT22;553;51.038;7.216;2023-11-19T08:33:59;12.30;99.90
1129;DHT22;553;51.038;7.216;2023-11-19T08:36:26;12.30;99.90
1129;DHT22;553;51.038;7.216;2023-11-19T08:38:54;12.30;99.90
1129;DHT22;553;51.038;7.216;2023-11-19T08:41:21;12.30;99.90
1129;DHT22;553;51.038;7.216;2023-11-19T08:43:48;12.30;99.90
1129;DHT22;553;51.038;7.216;2023-11-19T08:46:14;12.30;99.90
1129;DHT22;553;51.038;7.216;2023-11-19T08:48:41;12.30;99.90
1129;DHT22;553;51.038;7.216;2023-11-19T08:51:08;12.30;99.90
1129;DHT22;553;51.038;7.216;2023-11-19T08:53:35;12.40;99.90
1129;DHT22;553;51.038;7.216;2023-11-19T08:56:02;12.40;99.90
1129;DHT22;553;51.038;7.216;2023-11-19T08:58:30;12.40;99.90
1129;DHT22;553;51.038;7.216;2023-11-19T09:00:57;12.40;99.90
1129;DHT22;553;51.038;7.216;2023-11-19T09:03:25;12.30;99.90
1129;DHT22;553;51.038;7.216;2023-11-19T09:05:57;12.40;99.90
1129;DHT22;553;51.038;7.216;2023-11-19T09:08:24;12.50;99.90
1129;DHT22;553;51.038;7.216;2023-11-19T09:10:51;12.50;99.90
1129;DHT22;553;51.038;7.216;2023-11-19T09:13:17;12.50;99.90
1129;DHT22;553;51.038;7.216;2023-11-19T09:15:44;12.60;99.90
1129;DHT22;553;51.038;7.216;2023-11-19T09:18:11;12.60;99.90
1129;DHT22;553;51.038;7.216;2023-11-19T09:20:38;12.60;99.90
1129;DHT22;553;51.038;7.216;2023-11-19T09:23:06;12.60;99.90
1129;DHT22;553;51.038;7.216;2023-11-19T09:25:33;12.60;99.90
1129;DHT22;553;51.038;7.216;2023-11-19T09:28:03;12.70;99.90
1129;DHT22;553;51.038;7.216;2023-11-19T09:30:30;12.80;99.90
1129;DHT22;553;51.038;7.216;2023-11-19T09:32:57;12.80;99.90
1129;DHT22;553;51.038;7.216;2023-11-19T09:35:24;12.80;99.90
1129;DHT22;553;51.038;7.216;2023-11-19T09:37:50;12.80;99.90
1129;DHT22;553;51.038;7.216;2023-11-19T09:40:18;12.80;99.90
1129;DHT22;553;51.038;7.216;2023-11-19T09:42:45;12.90;99.90
1129;DHT22;553;51.038;7.216;2023-11-19T09:45:16;12.80;99.90
1129;DHT22;553;51.038;7.216;2023-11-19T09:47:44;12.80;99.90
1129;DHT22;553;51.038;7.216;2023-11-19T09:50:19;12.80;99.90
1129;DHT22;553;51.038;7.216;2023-11-19T09:52:47;12.80;99.90
1129;DHT22;553;51.038;7.216;2023-11-19T09:55:14;12.90;99.90
1129;DHT22;553;51.038;7.216;2023-11-19T09:57:41;13.10;99.90
1129;DHT22;553;51.038;7.216;2023-11-19T10:00:08;13.10;99.90
1129;DHT22;553;51.038;7.216;2023-11-19T10:02:37;13.00;99.90
1129;DHT22;553;51.038;7.216;2023-11-19T10:05:09;13.00;99.90
1129;DHT22;553;51.038;7.216;2023-11-19T10:07:36;12.90;99.90
1129;DHT22;553;51.038;7.216;2023-11-19T10:10:04;12.90;99.90
1129;DHT22;553;51.038;7.216;2023-11-19T10:12:31;12.90;99.90
1129;DHT22;553;51.038;7.216;2023-11-19T10:14:59;12.90;99.90
1129;DHT22;553;51.038;7.216;2023-11-19T10:17:32;12.90;99.90
1129;DHT22;553;51.038;7.216;2023-11-19T10:20:01;12.90;99.90
1129;DHT22;553;51.038;7.216;2023-11-19T10:22:28;12.90;99.90
1129;DHT22;553;51.038;7.216;2023-11-19T10:24:55;12.90;99.90
1129;DHT22;553;51.038;7.216;2023-11-19T10:27:24;13.20;99.90
1129;DHT22;553;51.038;7.216;2023-11-19T10:29:52;13.10;99.90
1129;DHT22;553;51.038;7.216;2023-11-19T10:32:19;13.10;99.90
1129;DHT22;553;51.038;7.216;2023-11-19T10:35:07;13.00;99.90
1129;DHT22;553;51.038;7.216;2023-11-19T10:37:34;13.10;99.90
1129;DHT22;553;51.038;7.216;2023-11-19T10:40:04;13.10;99.90
1129;DHT22;553;51.038;7.216;2023-11-19T10:42:32;13.10;99.90
1129;DHT22;553;51.038;7.216;2023-11-19T10:44:58;13.10;99.90
1129;DHT22;553;51.038;7.216;2023-11-19T10:47:25;13.10;99.90
1129;DHT22;553;51.038;7.216;2023-11-19T10:49:55;13.10;99.90
1129;DHT22;553;51.038;7.216;2023-11-19T10:52:22;13.10;99.90
1129;DHT22;553;51.038;7.216;2023-11-19T10:54:50;13.00;99.90
1129;DHT22;553;51.038;7.216;2023-11-19T10:57:20;13.10;99.90
1129;DHT22;553;51.038;7.216;2023-11-19T10:59:49;13.10;99.90
1129;DHT22;553;51.038;7.216;2023-11-19T11:02:20;13.10;99.90
1129;DHT22;553;51.038;7.216;2023-11-19T11:04:49;13.10;99.90
1129;DHT22;553;51.038;7.216;2023-11-19T11:07:18;13.10;99.90
1129;DHT22;553;51.038;7.216;2023-11-19T11:10:02;13.10;99.90
1129;DHT22;553;51.038;7.216;2023-11-19T11:12:36;13.20;99.90
1129;DHT22;553;51.038;7.216;2023-11-19T11:15:04;13.30;99.90
1129;DHT22;553;51.038;7.216;2023-11-19T11:17:33;13.30;99.90
1129;DHT22;553;51.038;7.216;2023-11-19T11:20:01;13.40;99.90
1129;DHT22;553;51.038;7.216;2023-11-19T11:22:34;13.40;99.90
1129;DHT22;553;51.038;7.216;2023-11-19T11:28:24;13.40;99.90
1129;DHT22;553;51.038;7.216;2023-11-19T11:31:26;13.30;99.90
1129;DHT22;553;51.038;7.216;2023-11-19T11:34:25;13.40;99.90
1129;DHT22;553;51.038;7.216;2023-11-19T11:39:35;13.20;99.90
1129;DHT22;553;51.038;7.216;2023-11-19T11:45:08;13.00;99.90
1129;DHT22;553;51.038;7.216;2023-11-19T11:55:51;12.90;99.90
1129;DHT22;553;51.038;7.216;2023-11-19T11:58:25;12.90;99.90
1129;DHT22;553;51.038;7.216;2023-11-19T12:00:52;13.00;99.90
1129;DHT22;553;51.038;7.216;2023-11-19T12:03:22;13.20;99.90
1129;DHT22;553;51.038;7.216;2023-11-19T12:05:49;13.30;99.90
1129;DHT22;553;51.038;7.216;2023-11-19T12:08:19;13.30;99.90
1129;DHT22;553;51.038;7.216;2023-11-19T12:10:54;13.40;99.90
1129;DHT22;553;51.038;7.216;2023-11-19T12:13:44;13.40;99.90
1129;DHT22;553;51.038;7.216;2023-11-19T12:16:12;13.50;99.90
1129;DHT22;553;51.038;7.216;2023-11-19T12:18:40;13.50;99.90
1129;DHT22;553;51.038;7.216;2023-11-19T12:21:07;13.40;99.90
1129;DHT22;553;51.038;7.216;2023-11-19T12:23:44;13.40;99.90
1129;DHT22;553;51.038;7.216;2023-11-19T12:26:34;13.40;99.90
1129;DHT22;553;51.038;7.216;2023-11-19T12:29:02;13.50;99.90
1129;DHT22;553;51.038;7.216;2023-11-19T12:31:35;13.40;99.90
1129;DHT22;553;51.038;7.216;2023-11-19T12:34:05;13.40;99.90
1129;DHT22;553;51.038;7.216;2023-11-19T12:36:33;13.30;99.90
1129;DHT22;553;51.038;7.216;2023-11-19T12:39:00;13.40;99.90
1129;DHT22;553;51.038;7.216;2023-11-19T12:41:27;13.30;99.90
1129;DHT22;553;51.038;7.216;2023-11-19T12:44:09;13.20;99.90
1129;DHT22;553;51.038;7.216;2023-11-19T12:46:35;13.20;99.90
1129;DHT22;553;51.038;7.216;2023-11-19T12:49:03;13.30;99.90
1129;DHT22;553;51.038;7.216;2023-11-19T12:51:33;13.20;99.90
1129;DHT22;553;51.038;7.216;2023-11-19T12:54:00;13.20;99.90
1129;DHT22;553;51.038;7.216;2023-11-19T12:56:26;13.20;99.90
1129;DHT22;553;51.038;7.216;2023-11-19T12:58:53;13.20;99.90
1129;DHT22;553;51.038;7.216;2023-11-19T13:01:20;13.20;99.90
1129;DHT22;553;51.038;7.216;2023-11-19T13:03:47;13.20;99.90
1129;DHT22;553;51.038;7.216;2023-11-19T13:06:18;13.20;99.90
1129;DHT22;553;51.038;7.216;2023-11-19T13:08:49;13.20;99.90
1129;DHT22;553;51.038;7.216;2023-11-19T13:11:34;13.20;99.90
1129;DHT22;553;51.038;7.216;2023-11-19T13:14:04;13.20;99.90
1129;DHT22;553;51.038;7.216;2023-11-19T13:16:38;13.30;99.90
1129;DHT22;553;51.038;7.216;2023-11-19T13:19:05;13.30;99.90
1129;DHT22;553;51.038;7.216;2023-11-19T13:21:32;13.30;99.90
1129;DHT22;553;51.038;7.216;2023-11-19T13:23:59;13.20;99.90
1129;DHT22;553;51.038;7.216;2023-11-19T13:26:26;13.30;99.90
1129;DHT22;553;51.038;7.216;2023-11-19T13:28:52;13.20;99.90
1129;DHT22;553;51.038;7.216;2023-11-19T13:31:19;13.30;99.90
1129;DHT22;553;51.038;7.216;2023-11-19T13:33:46;13.30;99.90
1129;DHT22;553;51.038;7.216;2023-11-19T13:36:13;13.30;99.90
1129;DHT22;553;51.038;7.216;2023-11-19T13:38:43;13.30;99.90
1129;DHT22;553;51.038;7.216;2023-11-19T13:41:13;13.20;99.90
1129;DHT22;553;51.038;7.216;2023-11-19T13:43:40;13.20;99.90
1129;DHT22;553;51.038;7.216;2023-11-19T13:46:07;13.20;99.90
1129;DHT22;553;51.038;7.216;2023-11-19T13:48:36;13.10;99.90
1129;DHT22;553;51.038;7.216;2023-11-19T13:51:03;13.10;99.90
1129;DHT22;553;51.038;7.216;2023-11-19T13:53:30;13.20;99.90
1129;DHT22;553;51.038;7.216;2023-11-19T13:55:58;13.10;99.90
1129;DHT22;553;51.038;7.216;2023-11-19T13:58:24;13.10;99.90
1129;DHT22;553;51.038;7.216;2023-11-19T14:00:51;13.10;99.90
1129;DHT22;553;51.038;7.216;2023-11-19T14:03:19;13.10;99.90
1129;DHT22;553;51.038;7.216;2023-11-19T14:05:46;13.10;99.90
1129;DHT22;553;51.038;7.216;2023-11-19T14:08:13;13.10;99.90
1129;DHT22;553;51.038;7.216;2023-11-19T14:10:51;13.10;99.90
1129;DHT22;553;51.038;7.216;2023-11-19T14:13:18;13.10;99.90
1129;DHT22;553;51.038;7.216;2023-11-19T14:15:45;13.10;99.90
1129;DHT22;553;51.038;7.216;2023-11-19T14:18:16;13.10;99.90
1129;DHT22;553;51.038;7.216;2023-11-19T14:20:43;13.00;99.90
1129;DHT22;553;51.038;7.216;2023-11-19T14:23:11;13.10;99.90
1129;DHT22;553;51.038;7.216;2023-11-19T14:25:38;13.10;99.90
1129;DHT22;553;51.038;7.216;2023-11-19T14:28:04;13.10;99.90
1129;DHT22;553;51.038;7.216;2023-11-19T14:30:32;13.10;99.90
1129;DHT22;553;51.038;7.216;2023-11-19T14:33:01;13.10;99.90
1129;DHT22;553;51.038;7.216;2023-11-19T14:35:29;13.10;99.90
1129;DHT22;553;51.038;7.216;2023-11-19T14:37:57;13.00;99.90
1129;DHT22;553;51.038;7.216;2023-11-19T14:40:23;13.00;99.90
1129;DHT22;553;51.038;7.216;2023-11-19T14:43:08;12.90;99.90
1129;DHT22;553;51.038;7.216;2023-11-19T14:45:37;12.90;99.90
1129;DHT22;553;51.038;7.216;2023-11-19T14:48:15;12.90;99.90
1129;DHT22;553;51.038;7.216;2023-11-19T14:50:41;12.90;99.90
1129;DHT22;553;51.038;7.216;2023-11-19T14:53:08;12.90;99.90
1129;DHT22;553;51.038;7.216;2023-11-19T14:55:35;12.90;99.90
1129;DHT22;553;51.038;7.216;2023-11-19T14:58:02;12.90;99.90
1129;DHT22;553;51.038;7.216;2023-11-19T15:00:37;13.00;99.90
1129;DHT22;553;51.038;7.216;2023-11-19T15:03:04;13.00;99.90
1129;DHT22;553;51.038;7.216;2023-11-19T15:05:31;12.80;99.90
1129;DHT22;553;51.038;7.216;2023-11-19T15:07:57;12.80;99.90
1129;DHT22;553;51.038;7.216;2023-11-19T15:10:25;12.70;99.90
1129;DHT22;553;51.038;7.216;2023-11-19T15:12:52;12.70;99.90
1129;DHT22;553;51.038;7.216;2023-11-19T15:15:19;12.70;99.90
1129;DHT22;553;51.038;7.216;2023-11-19T15:18:03;12.60;99.90
1129;DHT22;553;51.038;7.216;2023-11-19T15:20:29;12.70;99.90
1129;DHT22;553;51.038;7.216;2023-11-19T15:22:58;12.80;99.90
1129;DHT22;553;51.038;7.216;2023-11-19T15:25:24;12.80;99.90
1129;DHT22;553;51.038;7.216;2023-11-19T15:27:51;12.80;99.90
1129;DHT22;553;51.038;7.216;2023-11-19T15:30:18;12.90;99.90
1129;DHT22;553;51.038;7.216;2023-11-19T15:32:44;12.80;99.90
1129;DHT22;553;51.038;7.216;2023-11-19T15:35:12;12.80;99.90
1129;DHT22;553;51.038;7.216;2023-11-19T15:37:40;12.70;99.90
1129;DHT22;553;51.038;7.216;2023-11-19T15:40:10;12.60;99.90
1129;DHT22;553;51.038;7.216;2023-11-19T15:42:39;12.60;99.90
1129;DHT22;553;51.038;7.216;2023-11-19T15:45:08;12.70;99.90
1129;DHT22;553;51.038;7.216;2023-11-19T15:47:35;12.70;99.90
1129;DHT22;553;51.038;7.216;2023-11-19T15:50:02;12.60;99.90
1129;DHT22;553;51.038;7.216;2023-11-19T15:52:33;12.50;99.90
1129;DHT22;553;51.038;7.216;2023-11-19T15:55:00;12.40;99.90
1129;DHT22;553;51.038;7.216;2023-11-19T15:57:27;12.30;99.90
1129;DHT22;553;51.038;7.216;2023-11-19T15:59:54;12.10;99.90
1129;DHT22;553;51.038;7.216;2023-11-19T16:02:21;12.10;99.90
1129;DHT22;553;51.038;7.216;2023-11-19T16:04:48;12.00;99.90
1129;DHT22;553;51.038;7.216;2023-11-19T16:07:15;12.00;99.90
1129;DHT22;553;51.038;7.216;2023-11-19T16:09:41;12.00;99.90
1129;DHT22;553;51.038;7.216;2023-11-19T16:12:08;12.00;99.90
1129;DHT22;553;51.038;7.216;2023-11-19T16:14:35;12.00;99.90
1129;DHT22;553;51.038;7.216;2023-11-19T16:17:02;12.20;99.90
1129;DHT22;553;51.038;7.216;2023-11-19T16:19:29;12.20;99.90
1129;DHT22;553;51.038;7.216;2023-11-19T16:21:55;12.20;99.90
1129;DHT22;553;51.038;7.216;2023-11-19T16:24:22;12.20;99.90
1129;DHT22;553;51.038;7.216;2023-11-19T16:26:49;12.10;99.90
1129;DHT22;553;51.038;7.216;2023-11-19T16:29:17;12.10;99.90
1129;DHT22;553;51.038;7.216;2023-11-19T16:31:44;12.00;99.90
1129;DHT22;553;51.038;7.216;2023-11-19T16:34:10;12.10;99.90
1129;DHT22;553;51.038;7.216;2023-11-19T16:36:37;12.10;99.90
1129;DHT22;553;51.038;7.216;2023-11-19T16:39:04;12.10;99.90
1129;DHT22;553;51.038;7.216;2023-11-19T16:41:33;12.20;99.90
1129;DHT22;553;51.038;7.216;2023-11-19T16:44:08;12.10;99.90